sensor_id;sensor_type;location;lat;lon;timestamp;P1;durP1;ratioP1;P2;durP2;ratioP2
26696;SDS011;14312;52.614;13.496;2024-03-02T00:02:45;16.48;;;14.68;;
26696;SDS011;14312;52.614;13.496;2024-03-02T00:05:32;18.35;;;15.45;;
26696;SDS011;14312;52.614;13.496;2024-03-02T00:08:20;19.63;;;14.98;;
26696;SDS011;14312;52.614;13.496;2024-03-02T00:11:09;18.42;;;14.73;;
26696;SDS011;14312;52.614;13.496;2024-03-02T00:13:57;19.10;;;15.63;;
26696;SDS011;14312;52.614;13.496;2024-03-02T00:16:43;18.00;;;14.90;;
26696;SDS011;14312;52.614;13.496;2024-03-02T00:19:29;17.58;;;14.90;;
26696;SDS011;14312;52.614;13.496;2024-03-02T00:22:15;18.92;;;15.63;;
26696;SDS011;14312;52.614;13.496;2024-03-02T00:25:01;17.40;;;15.30;;
26696;SDS011;14312;52.614;13.496;2024-03-02T00:27:47;17.98;;;15.20;;
26696;SDS011;14312;52.614;13.496;2024-03-02T00:33:33;17.02;;;14.70;;
26696;SDS011;14312;52.614;13.496;2024-03-02T00:36:24;17.88;;;15.13;;
26696;SDS011;14312;52.614;13.496;2024-03-02T00:39:15;15.98;;;14.25;;
26696;SDS011;14312;52.614;13.496;2024-03-02T00:42:02;20.27;;;15.73;;
26696;SDS011;14312;52.614;13.496;2024-03-02T00:44:48;17.23;;;14.95;;
26696;SDS011;14312;52.614;13.496;2024-03-02T00:47:38;17.77;;;14.70;;
26696;SDS011;14312;52.614;13.496;2024-03-02T00:50:25;18.92;;;15.32;;
26696;SDS011;14312;52.614;13.496;2024-03-02T00:53:11;18.42;;;15.13;;
26696;SDS011;14312;52.614;13.496;2024-03-02T00:55:58;17.35;;;14.77;;
26696;SDS011;14312;52.614;13.496;2024-03-02T00:58:46;19.15;;;15.77;;
26696;SDS011;14312;52.614;13.496;2024-03-02T01:01:32;21.88;;;16.63;;
26696;SDS011;14312;52.614;13.496;2024-03-02T01:04:18;21.98;;;16.00;;
26696;SDS011;14312;52.614;13.496;2024-03-02T01:07:04;17.85;;;14.70;;
26696;SDS011;14312;52.614;13.496;2024-03-02T01:09:50;17.45;;;15.60;;
26696;SDS011;14312;52.614;13.496;2024-03-02T01:12:36;18.13;;;16.10;;
26696;SDS011;14312;52.614;13.496;2024-03-02T01:15:22;19.20;;;15.95;;
26696;SDS011;14312;52.614;13.496;2024-03-02T01:18:08;18.15;;;15.73;;
26696;SDS011;14312;52.614;13.496;2024-03-02T01:20:54;19.38;;;15.43;;
26696;SDS011;14312;52.614;13.496;2024-03-02T01:23:43;18.08;;;15.63;;
26696;SDS011;14312;52.614;13.496;2024-03-02T01:26:29;17.48;;;15.57;;
26696;SDS011;14312;52.614;13.496;2024-03-02T01:29:16;19.35;;;14.68;;
26696;SDS011;14312;52.614;13.496;2024-03-02T01:32:02;16.50;;;14.18;;
26696;SDS011;14312;52.614;13.496;2024-03-02T01:34:48;16.95;;;15.10;;
26696;SDS011;14312;52.614;13.496;2024-03-02T01:37:34;17.15;;;14.75;;
26696;SDS011;14312;52.614;13.496;2024-03-02T01:40:20;14.80;;;13.27;;
26696;SDS011;14312;52.614;13.496;2024-03-02T01:43:06;16.88;;;13.88;;
26696;SDS011;14312;52.614;13.496;2024-03-02T01:45:52;15.75;;;14.13;;
26696;SDS011;14312;52.614;13.496;2024-03-02T01:48:39;15.40;;;13.50;;
26696;SDS011;14312;52.614;13.496;2024-03-02T01:51:25;18.95;;;15.43;;
26696;SDS011;14312;52.614;13.496;2024-03-02T01:54:11;16.95;;;13.68;;
26696;SDS011;14312;52.614;13.496;2024-03-02T01:56:57;15.90;;;14.02;;
26696;SDS011;14312;52.614;13.496;2024-03-02T01:59:43;16.67;;;14.27;;
26696;SDS011;14312;52.614;13.496;2024-03-02T02:02:29;16.38;;;14.27;;
26696;SDS011;14312;52.614;13.496;2024-03-02T02:05:15;17.85;;;14.27;;
26696;SDS011;14312;52.614;13.496;2024-03-02T02:08:01;16.80;;;13.88;;
26696;SDS011;14312;52.614;13.496;2024-03-02T02:10:47;18.10;;;14.25;;
26696;SDS011;14312;52.614;13.496;2024-03-02T02:13:33;15.38;;;13.73;;
26696;SDS011;14312;52.614;13.496;2024-03-02T02:16:19;16.17;;;14.45;;
26696;SDS011;14312;52.614;13.496;2024-03-02T02:19:05;16.35;;;14.63;;
26696;SDS011;14312;52.614;13.496;2024-03-02T02:21:51;19.20;;;14.45;;
26696;SDS011;14312;52.614;13.496;2024-03-02T02:24:40;16.58;;;14.63;;
26696;SDS011;14312;52.614;13.496;2024-03-02T02:27:27;17.80;;;14.38;;
26696;SDS011;14312;52.614;13.496;2024-03-02T02:30:13;18.45;;;15.20;;
26696;SDS011;14312;52.614;13.496;2024-03-02T02:32:59;17.85;;;14.57;;
26696;SDS011;14312;52.614;13.496;2024-03-02T02:35:45;16.75;;;14.88;;
26696;SDS011;14312;52.614;13.496;2024-03-02T02:38:34;17.25;;;14.70;;
26696;SDS011;14312;52.614;13.496;2024-03-02T02:41:23;16.80;;;14.00;;
26696;SDS011;14312;52.614;13.496;2024-03-02T02:44:09;18.33;;;14.55;;
26696;SDS011;14312;52.614;13.496;2024-03-02T02:46:58;16.63;;;14.00;;
26696;SDS011;14312;52.614;13.496;2024-03-02T02:49:44;16.10;;;13.57;;
26696;SDS011;14312;52.614;13.496;2024-03-02T02:52:33;15.32;;;13.63;;
26696;SDS011;14312;52.614;13.496;2024-03-02T02:55:21;16.23;;;14.23;;
26696;SDS011;14312;52.614;13.496;2024-03-02T02:58:07;20.00;;;16.60;;
26696;SDS011;14312;52.614;13.496;2024-03-02T03:00:53;18.33;;;15.90;;
26696;SDS011;14312;52.614;13.496;2024-03-02T03:03:42;21.05;;;17.25;;
26696;SDS011;14312;52.614;13.496;2024-03-02T03:06:28;20.40;;;15.68;;
26696;SDS011;14312;52.614;13.496;2024-03-02T03:09:14;21.58;;;17.85;;
26696;SDS011;14312;52.614;13.496;2024-03-02T03:12:00;21.02;;;17.40;;
26696;SDS011;14312;52.614;13.496;2024-03-02T03:14:47;20.52;;;17.50;;
26696;SDS011;14312;52.614;13.496;2024-03-02T03:17:33;19.80;;;17.48;;
26696;SDS011;14312;52.614;13.496;2024-03-02T03:20:18;22.70;;;18.85;;
26696;SDS011;14312;52.614;13.496;2024-03-02T03:23:07;24.80;;;18.92;;
26696;SDS011;14312;52.614;13.496;2024-03-02T03:25:53;23.27;;;18.48;;
26696;SDS011;14312;52.614;13.496;2024-03-02T03:28:39;22.98;;;17.98;;
26696;SDS011;14312;52.614;13.496;2024-03-02T03:31:25;23.55;;;18.65;;
26696;SDS011;14312;52.614;13.496;2024-03-02T03:34:11;21.52;;;17.45;;
26696;SDS011;14312;52.614;13.496;2024-03-02T03:37:01;20.85;;;18.45;;
26696;SDS011;14312;52.614;13.496;2024-03-02T03:39:48;21.52;;;18.10;;
26696;SDS011;14312;52.614;13.496;2024-03-02T03:42:34;22.90;;;17.88;;
26696;SDS011;14312;52.614;13.496;2024-03-02T03:45:20;21.42;;;16.92;;
26696;SDS011;14312;52.614;13.496;2024-03-02T03:48:06;21.67;;;17.65;;
26696;SDS011;14312;52.614;13.496;2024-03-02T03:50:52;19.25;;;16.67;;
26696;SDS011;14312;52.614;13.496;2024-03-02T03:53:38;19.20;;;16.10;;
26696;SDS011;14312;52.614;13.496;2024-03-02T03:56:24;20.15;;;16.40;;
26696;SDS011;14312;52.614;13.496;2024-03-02T03:59:10;18.45;;;15.75;;
26696;SDS011;14312;52.614;13.496;2024-03-02T04:01:56;19.98;;;16.63;;
26696;SDS011;14312;52.614;13.496;2024-03-02T04:04:42;19.67;;;17.13;;
26696;SDS011;14312;52.614;13.496;2024-03-02T04:07:29;20.35;;;17.17;;
26696;SDS011;14312;52.614;13.496;2024-03-02T04:10:15;20.98;;;17.05;;
26696;SDS011;14312;52.614;13.496;2024-03-02T04:13:02;19.95;;;16.23;;
26696;SDS011;14312;52.614;13.496;2024-03-02T04:15:48;21.23;;;16.13;;
26696;SDS011;14312;52.614;13.496;2024-03-02T04:18:34;18.95;;;16.90;;
26696;SDS011;14312;52.614;13.496;2024-03-02T04:21:20;20.60;;;16.42;;
26696;SDS011;14312;52.614;13.496;2024-03-02T04:24:06;19.25;;;16.05;;
26696;SDS011;14312;52.614;13.496;2024-03-02T04:26:52;19.92;;;16.05;;
26696;SDS011;14312;52.614;13.496;2024-03-02T04:29:38;18.13;;;15.85;;
26696;SDS011;14312;52.614;13.496;2024-03-02T04:32:24;18.70;;;16.27;;
26696;SDS011;14312;52.614;13.496;2024-03-02T04:35:10;17.30;;;15.25;;
26696;SDS011;14312;52.614;13.496;2024-03-02T04:37:56;17.88;;;15.55;;
26696;SDS011;14312;52.614;13.496;2024-03-02T04:40:42;19.38;;;15.68;;
26696;SDS011;14312;52.614;13.496;2024-03-02T04:43:28;17.60;;;14.65;;
26696;SDS011;14312;52.614;13.496;2024-03-02T04:46:14;16.58;;;14.88;;
26696;SDS011;14312;52.614;13.496;2024-03-02T04:49:01;16.08;;;13.77;;
26696;SDS011;14312;52.614;13.496;2024-03-02T04:51:46;16.85;;;14.75;;
26696;SDS011;14312;52.614;13.496;2024-03-02T04:54:32;17.80;;;15.05;;
26696;SDS011;14312;52.614;13.496;2024-03-02T04:57:20;16.75;;;14.88;;
26696;SDS011;14312;52.614;13.496;2024-03-02T05:00:06;16.30;;;14.60;;
26696;SDS011;14312;52.614;13.496;2024-03-02T05:02:54;18.00;;;15.18;;
26696;SDS011;14312;52.614;13.496;2024-03-02T05:05:40;16.77;;;15.05;;
26696;SDS011;14312;52.614;13.496;2024-03-02T05:08:26;18.23;;;14.85;;
26696;SDS011;14312;52.614;13.496;2024-03-02T05:11:12;17.60;;;15.48;;
26696;SDS011;14312;52.614;13.496;2024-03-02T05:14:16;16.13;;;14.20;;
26696;SDS011;14312;52.614;13.496;2024-03-02T05:17:02;16.20;;;14.05;;
26696;SDS011;14312;52.614;13.496;2024-03-02T05:19:48;15.40;;;13.82;;
26696;SDS011;14312;52.614;13.496;2024-03-02T05:22:35;17.83;;;15.00;;
26696;SDS011;14312;52.614;13.496;2024-03-02T05:25:21;17.67;;;15.73;;
26696;SDS011;14312;52.614;13.496;2024-03-02T05:28:07;17.95;;;16.05;;
26696;SDS011;14312;52.614;13.496;2024-03-02T05:30:53;18.50;;;15.40;;
26696;SDS011;14312;52.614;13.496;2024-03-02T05:33:39;19.85;;;16.95;;
26696;SDS011;14312;52.614;13.496;2024-03-02T05:36:25;19.63;;;16.88;;
26696;SDS011;14312;52.614;13.496;2024-03-02T05:39:11;21.95;;;18.15;;
26696;SDS011;14312;52.614;13.496;2024-03-02T05:41:57;25.20;;;21.92;;
26696;SDS011;14312;52.614;13.496;2024-03-02T05:44:43;25.35;;;22.75;;
26696;SDS011;14312;52.614;13.496;2024-03-02T05:47:29;26.70;;;22.25;;
26696;SDS011;14312;52.614;13.496;2024-03-02T05:50:15;27.15;;;23.23;;
26696;SDS011;14312;52.614;13.496;2024-03-02T05:53:00;24.90;;;22.05;;
26696;SDS011;14312;52.614;13.496;2024-03-02T05:55:46;27.70;;;23.75;;
26696;SDS011;14312;52.614;13.496;2024-03-02T05:58:32;30.45;;;26.95;;
26696;SDS011;14312;52.614;13.496;2024-03-02T06:01:35;29.88;;;25.35;;
26696;SDS011;14312;52.614;13.496;2024-03-02T06:04:21;29.55;;;26.38;;
26696;SDS011;14312;52.614;13.496;2024-03-02T06:07:07;31.33;;;26.30;;
26696;SDS011;14312;52.614;13.496;2024-03-02T06:09:53;33.45;;;27.73;;
26696;SDS011;14312;52.614;13.496;2024-03-02T06:12:39;33.60;;;25.52;;
26696;SDS011;14312;52.614;13.496;2024-03-02T06:15:26;28.65;;;24.73;;
26696;SDS011;14312;52.614;13.496;2024-03-02T06:18:12;26.73;;;21.85;;
26696;SDS011;14312;52.614;13.496;2024-03-02T06:20:58;28.20;;;25.15;;
26696;SDS011;14312;52.614;13.496;2024-03-02T06:23:44;31.63;;;25.52;;
26696;SDS011;14312;52.614;13.496;2024-03-02T06:26:29;26.27;;;23.27;;
26696;SDS011;14312;52.614;13.496;2024-03-02T06:29:17;27.15;;;23.65;;
26696;SDS011;14312;52.614;13.496;2024-03-02T06:32:03;24.02;;;21.35;;
26696;SDS011;14312;52.614;13.496;2024-03-02T06:34:49;22.50;;;20.20;;
26696;SDS011;14312;52.614;13.496;2024-03-02T06:37:36;23.00;;;19.55;;
26696;SDS011;14312;52.614;13.496;2024-03-02T06:40:22;20.95;;;18.15;;
26696;SDS011;14312;52.614;13.496;2024-03-02T06:43:08;26.23;;;20.02;;
26696;SDS011;14312;52.614;13.496;2024-03-02T06:45:54;27.08;;;21.38;;
26696;SDS011;14312;52.614;13.496;2024-03-02T06:48:40;24.50;;;20.25;;
26696;SDS011;14312;52.614;13.496;2024-03-02T06:51:26;26.05;;;20.65;;
26696;SDS011;14312;52.614;13.496;2024-03-02T06:54:12;28.73;;;22.55;;
26696;SDS011;14312;52.614;13.496;2024-03-02T06:56:58;32.47;;;26.88;;
26696;SDS011;14312;52.614;13.496;2024-03-02T06:59:44;31.30;;;25.25;;
26696;SDS011;14312;52.614;13.496;2024-03-02T07:02:30;30.98;;;26.65;;
26696;SDS011;14312;52.614;13.496;2024-03-02T07:05:16;32.15;;;26.80;;
26696;SDS011;14312;52.614;13.496;2024-03-02T07:08:02;27.38;;;24.23;;
26696;SDS011;14312;52.614;13.496;2024-03-02T07:10:49;29.10;;;22.50;;
26696;SDS011;14312;52.614;13.496;2024-03-02T07:13:35;25.27;;;21.55;;
26696;SDS011;14312;52.614;13.496;2024-03-02T07:16:21;28.13;;;21.98;;
26696;SDS011;14312;52.614;13.496;2024-03-02T07:19:18;29.10;;;23.08;;
26696;SDS011;14312;52.614;13.496;2024-03-02T07:22:07;30.90;;;24.42;;
26696;SDS011;14312;52.614;13.496;2024-03-02T07:24:56;24.27;;;20.77;;
26696;SDS011;14312;52.614;13.496;2024-03-02T07:27:42;24.58;;;21.67;;
26696;SDS011;14312;52.614;13.496;2024-03-02T07:30:29;25.23;;;20.35;;
26696;SDS011;14312;52.614;13.496;2024-03-02T07:33:15;26.63;;;22.48;;
26696;SDS011;14312;52.614;13.496;2024-03-02T07:36:02;25.63;;;21.77;;
26696;SDS011;14312;52.614;13.496;2024-03-02T07:38:48;22.90;;;20.15;;
26696;SDS011;14312;52.614;13.496;2024-03-02T07:41:36;27.77;;;22.95;;
26696;SDS011;14312;52.614;13.496;2024-03-02T07:44:22;31.15;;;25.48;;
26696;SDS011;14312;52.614;13.496;2024-03-02T07:47:08;35.60;;;29.75;;
26696;SDS011;14312;52.614;13.496;2024-03-02T07:49:54;36.75;;;29.13;;
26696;SDS011;14312;52.614;13.496;2024-03-02T07:52:40;32.40;;;26.50;;
26696;SDS011;14312;52.614;13.496;2024-03-02T07:55:26;31.65;;;27.33;;
26696;SDS011;14312;52.614;13.496;2024-03-02T07:58:12;36.05;;;29.77;;
26696;SDS011;14312;52.614;13.496;2024-03-02T08:00:58;37.97;;;31.10;;
26696;SDS011;14312;52.614;13.496;2024-03-02T08:03:46;40.40;;;32.20;;
26696;SDS011;14312;52.614;13.496;2024-03-02T08:06:36;39.42;;;31.92;;
26696;SDS011;14312;52.614;13.496;2024-03-02T08:09:22;35.83;;;29.42;;
26696;SDS011;14312;52.614;13.496;2024-03-02T08:12:08;32.50;;;27.40;;
26696;SDS011;14312;52.614;13.496;2024-03-02T08:14:54;35.75;;;29.02;;
26696;SDS011;14312;52.614;13.496;2024-03-02T08:17:40;33.80;;;28.38;;
26696;SDS011;14312;52.614;13.496;2024-03-02T08:20:34;37.97;;;31.17;;
26696;SDS011;14312;52.614;13.496;2024-03-02T08:23:19;36.90;;;30.55;;
26696;SDS011;14312;52.614;13.496;2024-03-02T08:26:08;34.63;;;28.77;;
26696;SDS011;14312;52.614;13.496;2024-03-02T08:28:55;37.08;;;29.23;;
26696;SDS011;14312;52.614;13.496;2024-03-02T08:31:41;37.35;;;30.10;;
26696;SDS011;14312;52.614;13.496;2024-03-02T08:34:27;38.63;;;31.38;;
26696;SDS011;14312;52.614;13.496;2024-03-02T08:37:13;36.13;;;29.08;;
26696;SDS011;14312;52.614;13.496;2024-03-02T08:39:59;37.30;;;30.92;;
26696;SDS011;14312;52.614;13.496;2024-03-02T08:42:45;41.38;;;33.33;;
26696;SDS011;14312;52.614;13.496;2024-03-02T08:45:31;38.75;;;31.48;;
26696;SDS011;14312;52.614;13.496;2024-03-02T08:48:17;40.72;;;31.52;;
26696;SDS011;14312;52.614;13.496;2024-03-02T08:51:03;41.90;;;32.17;;
26696;SDS011;14312;52.614;13.496;2024-03-02T08:53:51;38.80;;;31.48;;
26696;SDS011;14312;52.614;13.496;2024-03-02T08:56:37;37.47;;;30.17;;
26696;SDS011;14312;52.614;13.496;2024-03-02T08:59:23;37.17;;;31.20;;
26696;SDS011;14312;52.614;13.496;2024-03-02T09:02:10;37.90;;;31.42;;
26696;SDS011;14312;52.614;13.496;2024-03-02T09:04:56;36.70;;;30.58;;
26696;SDS011;14312;52.614;13.496;2024-03-02T09:07:43;40.03;;;30.77;;
26696;SDS011;14312;52.614;13.496;2024-03-02T09:10:29;35.13;;;29.30;;
26696;SDS011;14312;52.614;13.496;2024-03-02T09:13:15;33.88;;;28.40;;
26696;SDS011;14312;52.614;13.496;2024-03-02T09:16:01;36.80;;;29.48;;
26696;SDS011;14312;52.614;13.496;2024-03-02T09:18:48;37.22;;;29.00;;
26696;SDS011;14312;52.614;13.496;2024-03-02T09:21:34;34.42;;;28.40;;
26696;SDS011;14312;52.614;13.496;2024-03-02T09:24:20;33.15;;;27.30;;
26696;SDS011;14312;52.614;13.496;2024-03-02T09:27:06;34.13;;;29.10;;
26696;SDS011;14312;52.614;13.496;2024-03-02T09:29:52;38.15;;;29.15;;
26696;SDS011;14312;52.614;13.496;2024-03-02T09:32:38;33.88;;;27.55;;
26696;SDS011;14312;52.614;13.496;2024-03-02T09:35:24;32.85;;;27.60;;
26696;SDS011;14312;52.614;13.496;2024-03-02T09:38:10;31.17;;;26.38;;
26696;SDS011;14312;52.614;13.496;2024-03-02T09:40:56;34.80;;;28.38;;
26696;SDS011;14312;52.614;13.496;2024-03-02T09:43:42;32.38;;;28.67;;
26696;SDS011;14312;52.614;13.496;2024-03-02T09:46:28;36.08;;;29.92;;
26696;SDS011;14312;52.614;13.496;2024-03-02T09:49:14;35.80;;;29.35;;
26696;SDS011;14312;52.614;13.496;2024-03-02T09:52:00;37.00;;;29.38;;
26696;SDS011;14312;52.614;13.496;2024-03-02T09:54:47;34.85;;;29.50;;
26696;SDS011;14312;52.614;13.496;2024-03-02T09:57:33;35.28;;;29.13;;
26696;SDS011;14312;52.614;13.496;2024-03-02T10:00:19;32.50;;;26.23;;
26696;SDS011;14312;52.614;13.496;2024-03-02T10:03:05;31.05;;;26.15;;
26696;SDS011;14312;52.614;13.496;2024-03-02T10:06:15;29.77;;;25.25;;
26696;SDS011;14312;52.614;13.496;2024-03-02T10:09:04;30.98;;;26.15;;
26696;SDS011;14312;52.614;13.496;2024-03-02T10:11:50;28.35;;;23.02;;
26696;SDS011;14312;52.614;13.496;2024-03-02T10:14:36;30.40;;;26.08;;
26696;SDS011;14312;52.614;13.496;2024-03-02T10:17:22;30.55;;;25.45;;
26696;SDS011;14312;52.614;13.496;2024-03-02T10:20:24;29.85;;;25.90;;
26696;SDS011;14312;52.614;13.496;2024-03-02T10:23:19;30.27;;;25.58;;
26696;SDS011;14312;52.614;13.496;2024-03-02T10:26:16;30.15;;;24.73;;
26696;SDS011;14312;52.614;13.496;2024-03-02T10:29:04;31.25;;;25.33;;
26696;SDS011;14312;52.614;13.496;2024-03-02T10:31:49;27.15;;;23.10;;
26696;SDS011;14312;52.614;13.496;2024-03-02T10:34:35;25.02;;;21.55;;
26696;SDS011;14312;52.614;13.496;2024-03-02T10:37:21;26.27;;;20.95;;
26696;SDS011;14312;52.614;13.496;2024-03-02T10:40:07;22.60;;;20.20;;
26696;SDS011;14312;52.614;13.496;2024-03-02T10:42:56;25.02;;;21.60;;
26696;SDS011;14312;52.614;13.496;2024-03-02T10:45:43;24.00;;;19.70;;
26696;SDS011;14312;52.614;13.496;2024-03-02T10:48:31;26.65;;;22.45;;
26696;SDS011;14312;52.614;13.496;2024-03-02T10:51:20;24.48;;;19.73;;
26696;SDS011;14312;52.614;13.496;2024-03-02T10:54:06;26.17;;;22.13;;
26696;SDS011;14312;52.614;13.496;2024-03-02T10:56:52;25.30;;;21.42;;
26696;SDS011;14312;52.614;13.496;2024-03-02T10:59:50;24.80;;;20.95;;
26696;SDS011;14312;52.614;13.496;2024-03-02T11:02:38;22.63;;;19.00;;
26696;SDS011;14312;52.614;13.496;2024-03-02T11:05:31;21.90;;;18.27;;
26696;SDS011;14312;52.614;13.496;2024-03-02T11:08:19;21.30;;;18.85;;
26696;SDS011;14312;52.614;13.496;2024-03-02T11:11:13;22.92;;;19.48;;
26696;SDS011;14312;52.614;13.496;2024-03-02T11:14:01;20.50;;;17.67;;
26696;SDS011;14312;52.614;13.496;2024-03-02T11:16:53;21.77;;;19.05;;
26696;SDS011;14312;52.614;13.496;2024-03-02T11:19:40;20.17;;;17.17;;
26696;SDS011;14312;52.614;13.496;2024-03-02T11:22:26;18.38;;;16.38;;
26696;SDS011;14312;52.614;13.496;2024-03-02T11:25:25;17.13;;;15.32;;
26696;SDS011;14312;52.614;13.496;2024-03-02T11:28:12;16.83;;;14.35;;
26696;SDS011;14312;52.614;13.496;2024-03-02T11:30:58;17.50;;;14.43;;
26696;SDS011;14312;52.614;13.496;2024-03-02T11:33:44;16.38;;;14.60;;
26696;SDS011;14312;52.614;13.496;2024-03-02T11:36:30;14.38;;;12.82;;
26696;SDS011;14312;52.614;13.496;2024-03-02T11:39:16;13.98;;;12.40;;
26696;SDS011;14312;52.614;13.496;2024-03-02T11:42:04;15.13;;;12.70;;
26696;SDS011;14312;52.614;13.496;2024-03-02T11:44:52;14.35;;;12.88;;
26696;SDS011;14312;52.614;13.496;2024-03-02T11:47:42;20.10;;;16.50;;
26696;SDS011;14312;52.614;13.496;2024-03-02T11:50:49;18.80;;;16.80;;
26696;SDS011;14312;52.614;13.496;2024-03-02T11:53:36;17.05;;;14.95;;
26696;SDS011;14312;52.614;13.496;2024-03-02T11:56:25;15.25;;;12.20;;
26696;SDS011;14312;52.614;13.496;2024-03-02T11:59:11;15.27;;;13.65;;
26696;SDS011;14312;52.614;13.496;2024-03-02T12:01:58;15.00;;;13.50;;
26696;SDS011;14312;52.614;13.496;2024-03-02T12:04:45;14.27;;;12.77;;
26696;SDS011;14312;52.614;13.496;2024-03-02T12:07:33;12.27;;;11.00;;
26696;SDS011;14312;52.614;13.496;2024-03-02T12:10:20;14.93;;;12.30;;
26696;SDS011;14312;52.614;13.496;2024-03-02T12:13:06;13.38;;;12.05;;
26696;SDS011;14312;52.614;13.496;2024-03-02T12:15:56;16.58;;;14.73;;
26696;SDS011;14312;52.614;13.496;2024-03-02T12:18:42;13.10;;;11.75;;
26696;SDS011;14312;52.614;13.496;2024-03-02T12:21:29;14.32;;;12.82;;
26696;SDS011;14312;52.614;13.496;2024-03-02T12:24:15;15.15;;;13.10;;
26696;SDS011;14312;52.614;13.496;2024-03-02T12:27:01;12.02;;;10.82;;
26696;SDS011;14312;52.614;13.496;2024-03-02T12:29:47;15.85;;;13.88;;
26696;SDS011;14312;52.614;13.496;2024-03-02T12:32:33;11.95;;;10.65;;
26696;SDS011;14312;52.614;13.496;2024-03-02T12:35:20;12.45;;;11.15;;
26696;SDS011;14312;52.614;13.496;2024-03-02T12:38:06;14.05;;;12.18;;
26696;SDS011;14312;52.614;13.496;2024-03-02T12:40:52;12.25;;;10.75;;
26696;SDS011;14312;52.614;13.496;2024-03-02T12:43:38;10.85;;;9.75;;
26696;SDS011;14312;52.614;13.496;2024-03-02T12:46:24;13.25;;;11.88;;
26696;SDS011;14312;52.614;13.496;2024-03-02T12:49:11;13.90;;;12.18;;
26696;SDS011;14312;52.614;13.496;2024-03-02T12:51:58;13.30;;;11.73;;
26696;SDS011;14312;52.614;13.496;2024-03-02T12:54:44;13.00;;;11.55;;
26696;SDS011;14312;52.614;13.496;2024-03-02T12:57:31;10.98;;;9.88;;
26696;SDS011;14312;52.614;13.496;2024-03-02T13:00:19;11.25;;;9.73;;
26696;SDS011;14312;52.614;13.496;2024-03-02T13:03:06;12.30;;;11.00;;
26696;SDS011;14312;52.614;13.496;2024-03-02T13:05:52;13.18;;;11.70;;
26696;SDS011;14312;52.614;13.496;2024-03-02T13:08:39;14.13;;;12.63;;
26696;SDS011;14312;52.614;13.496;2024-03-02T13:11:26;13.88;;;12.27;;
26696;SDS011;14312;52.614;13.496;2024-03-02T13:14:12;14.45;;;12.05;;
26696;SDS011;14312;52.614;13.496;2024-03-02T13:16:58;11.20;;;10.00;;
26696;SDS011;14312;52.614;13.496;2024-03-02T13:19:55;10.57;;;9.48;;
26696;SDS011;14312;52.614;13.496;2024-03-02T13:22:42;15.20;;;12.52;;
26696;SDS011;14312;52.614;13.496;2024-03-02T13:25:28;11.10;;;9.98;;
26696;SDS011;14312;52.614;13.496;2024-03-02T13:28:14;10.95;;;9.52;;
26696;SDS011;14312;52.614;13.496;2024-03-02T13:31:00;10.35;;;9.25;;
26696;SDS011;14312;52.614;13.496;2024-03-02T13:33:45;11.40;;;10.20;;
26696;SDS011;14312;52.614;13.496;2024-03-02T13:36:32;10.73;;;9.63;;
26696;SDS011;14312;52.614;13.496;2024-03-02T13:39:18;12.52;;;9.52;;
26696;SDS011;14312;52.614;13.496;2024-03-02T13:42:04;10.25;;;9.25;;
26696;SDS011;14312;52.614;13.496;2024-03-02T13:44:52;10.73;;;9.73;;
26696;SDS011;14312;52.614;13.496;2024-03-02T13:47:38;10.90;;;9.80;;
26696;SDS011;14312;52.614;13.496;2024-03-02T13:50:24;9.18;;;8.27;;
26696;SDS011;14312;52.614;13.496;2024-03-02T13:53:10;8.20;;;7.40;;
26696;SDS011;14312;52.614;13.496;2024-03-02T13:55:56;8.85;;;7.95;;
26696;SDS011;14312;52.614;13.496;2024-03-02T13:58:42;9.68;;;8.68;;
26696;SDS011;14312;52.614;13.496;2024-03-02T14:01:29;10.00;;;9.00;;
26696;SDS011;14312;52.614;13.496;2024-03-02T14:04:15;10.00;;;8.82;;
26696;SDS011;14312;52.614;13.496;2024-03-02T14:07:01;8.40;;;7.60;;
26696;SDS011;14312;52.614;13.496;2024-03-02T14:09:47;7.72;;;6.93;;
26696;SDS011;14312;52.614;13.496;2024-03-02T14:12:33;7.68;;;6.70;;
26696;SDS011;14312;52.614;13.496;2024-03-02T14:15:19;6.22;;;5.63;;
26696;SDS011;14312;52.614;13.496;2024-03-02T14:18:05;6.65;;;6.05;;
26696;SDS011;14312;52.614;13.496;2024-03-02T14:20:51;6.47;;;5.88;;
26696;SDS011;14312;52.614;13.496;2024-03-02T14:23:38;7.93;;;7.13;;
26696;SDS011;14312;52.614;13.496;2024-03-02T14:26:24;6.03;;;5.43;;
26696;SDS011;14312;52.614;13.496;2024-03-02T14:29:10;6.70;;;5.90;;
26696;SDS011;14312;52.614;13.496;2024-03-02T14:31:57;7.07;;;6.38;;
26696;SDS011;14312;52.614;13.496;2024-03-02T14:34:42;7.82;;;7.10;;
26696;SDS011;14312;52.614;13.496;2024-03-02T14:37:29;7.20;;;6.43;;
26696;SDS011;14312;52.614;13.496;2024-03-02T14:40:15;7.35;;;6.55;;
26696;SDS011;14312;52.614;13.496;2024-03-02T14:43:02;7.72;;;6.90;;
26696;SDS011;14312;52.614;13.496;2024-03-02T14:45:48;8.02;;;6.80;;
26696;SDS011;14312;52.614;13.496;2024-03-02T14:48:35;6.80;;;6.10;;
26696;SDS011;14312;52.614;13.496;2024-03-02T14:51:21;6.93;;;6.20;;
26696;SDS011;14312;52.614;13.496;2024-03-02T14:54:07;6.32;;;5.72;;
26696;SDS011;14312;52.614;13.496;2024-03-02T14:56:54;5.40;;;4.90;;
26696;SDS011;14312;52.614;13.496;2024-03-02T14:59:40;6.00;;;5.40;;
26696;SDS011;14312;52.614;13.496;2024-03-02T15:02:25;6.20;;;5.60;;
26696;SDS011;14312;52.614;13.496;2024-03-02T15:05:14;6.03;;;5.47;;
26696;SDS011;14312;52.614;13.496;2024-03-02T15:08:00;7.15;;;6.45;;
26696;SDS011;14312;52.614;13.496;2024-03-02T15:10:48;7.88;;;7.07;;
26696;SDS011;14312;52.614;13.496;2024-03-02T15:13:34;8.52;;;7.70;;
26696;SDS011;14312;52.614;13.496;2024-03-02T15:16:20;6.95;;;6.35;;
26696;SDS011;14312;52.614;13.496;2024-03-02T15:19:06;8.23;;;7.18;;
26696;SDS011;14312;52.614;13.496;2024-03-02T15:21:51;8.32;;;7.53;;
26696;SDS011;14312;52.614;13.496;2024-03-02T15:24:37;8.25;;;7.43;;
26696;SDS011;14312;52.614;13.496;2024-03-02T15:27:23;7.68;;;6.97;;
26696;SDS011;14312;52.614;13.496;2024-03-02T15:30:10;7.82;;;7.03;;
26696;SDS011;14312;52.614;13.496;2024-03-02T15:32:56;8.75;;;7.85;;
26696;SDS011;14312;52.614;13.496;2024-03-02T15:35:43;7.95;;;7.03;;
26696;SDS011;14312;52.614;13.496;2024-03-02T15:38:29;8.32;;;7.53;;
26696;SDS011;14312;52.614;13.496;2024-03-02T15:41:15;8.38;;;7.57;;
26696;SDS011;14312;52.614;13.496;2024-03-02T15:44:01;8.23;;;7.43;;
26696;SDS011;14312;52.614;13.496;2024-03-02T15:46:47;10.07;;;7.28;;
26696;SDS011;14312;52.614;13.496;2024-03-02T15:49:33;8.07;;;7.28;;
26696;SDS011;14312;52.614;13.496;2024-03-02T15:52:19;8.02;;;7.13;;
26696;SDS011;14312;52.614;13.496;2024-03-02T15:55:06;9.75;;;7.07;;
26696;SDS011;14312;52.614;13.496;2024-03-02T15:57:52;8.40;;;7.50;;
26696;SDS011;14312;52.614;13.496;2024-03-02T16:00:38;7.53;;;6.53;;
26696;SDS011;14312;52.614;13.496;2024-03-02T16:03:25;7.45;;;6.50;;
26696;SDS011;14312;52.614;13.496;2024-03-02T16:06:11;9.48;;;7.85;;
26696;SDS011;14312;52.614;13.496;2024-03-02T16:08:57;7.82;;;7.00;;
26696;SDS011;14312;52.614;13.496;2024-03-02T16:11:45;7.65;;;6.95;;